createdAt,value
2022-08-16T00:01:05.378Z,58
2022-08-16T00:02:11.655Z,58
2022-08-16T00:03:17.930Z,58
2022-08-16T00:04:24.203Z,59
2022-08-16T00:05:30.471Z,58
2022-08-16T00:06:36.751Z,58
2022-08-16T00:07:43.027Z,58
2022-08-16T00:08:48.312Z,58
2022-08-16T00:09:54.576Z,58
2022-08-16T00:11:00.865Z,58
2022-08-16T00:12:07.121Z,59
2022-08-16T00:13:13.396Z,59
2022-08-16T00:14:19.668Z,58
2022-08-16T00:15:25.958Z,58
2022-08-16T00:16:32.209Z,58
2022-08-16T00:17:38.485Z,58
2022-08-16T00:18:44.764Z,58
2022-08-16T00:19:51.031Z,58
2022-08-16T00:20:57.299Z,58
2022-08-16T00:22:03.579Z,59
2022-08-16T00:23:09.850Z,58
2022-08-16T00:24:15.135Z,58
2022-08-16T00:25:21.408Z,59
2022-08-16T00:26:27.695Z,58
2022-08-16T00:27:33.959Z,59
2022-08-16T00:28:40.226Z,58
2022-08-16T00:29:46.499Z,58
2022-08-16T00:30:52.777Z,58
2022-08-16T00:31:59.053Z,58
2022-08-16T00:33:05.314Z,59
2022-08-16T00:34:11.590Z,58
2022-08-16T00:35:17.859Z,58
2022-08-16T00:36:24.126Z,58
2022-08-16T00:37:30.399Z,58
2022-08-16T00:38:35.703Z,58
2022-08-16T00:39:41.971Z,58
2022-08-16T00:40:48.232Z,59
2022-08-16T00:41:54.517Z,58
2022-08-16T00:43:00.790Z,58
2022-08-16T00:44:07.052Z,59
2022-08-16T00:45:13.326Z,58
2022-08-16T00:46:19.600Z,58
2022-08-16T00:47:25.864Z,58
2022-08-16T00:48:32.137Z,58
2022-08-16T00:49:38.415Z,58
2022-08-16T00:50:44.684Z,58
2022-08-16T00:51:50.955Z,58
2022-08-16T00:52:56.246Z,58
2022-08-16T00:54:02.523Z,58
2022-08-16T00:55:08.792Z,58
2022-08-16T00:56:15.063Z,58
2022-08-16T00:57:21.341Z,58
2022-08-16T00:58:27.609Z,58
2022-08-16T00:59:33.878Z,58
2022-08-16T01:00:40.157Z,58
2022-08-16T01:01:46.423Z,58
2022-08-16T01:02:52.707Z,58
2022-08-16T01:03:58.975Z,58
2022-08-16T01:05:05.251Z,58
2022-08-16T01:06:11.522Z,58
2022-08-16T01:07:17.789Z,58
2022-08-16T01:08:24.058Z,58
2022-08-16T01:09:29.346Z,58
2022-08-16T01:10:35.623Z,58
2022-08-16T01:11:41.888Z,58
2022-08-16T01:12:48.156Z,58
2022-08-16T01:13:54.439Z,58
2022-08-16T01:15:00.702Z,58
2022-08-16T01:16:06.983Z,58
2022-08-16T01:17:13.266Z,58
2022-08-16T01:18:19.520Z,58
2022-08-16T01:19:25.791Z,58
2022-08-16T01:20:32.064Z,58
2022-08-16T01:21:38.344Z,58
2022-08-16T01:22:44.610Z,58
2022-08-16T01:23:50.875Z,58
2022-08-16T01:24:57.149Z,58
2022-08-16T01:26:02.446Z,58
2022-08-16T01:27:08.711Z,58
2022-08-16T01:28:14.983Z,58
2022-08-16T01:29:21.255Z,58
2022-08-16T01:30:27.529Z,58
2022-08-16T01:31:33.795Z,58
2022-08-16T01:32:40.075Z,58
2022-08-16T01:33:46.339Z,58
2022-08-16T01:34:52.614Z,58
2022-08-16T01:35:58.896Z,58
2022-08-16T01:37:05.159Z,58
2022-08-16T01:38:11.437Z,58
2022-08-16T01:39:17.702Z,58
2022-08-16T01:40:22.996Z,58
2022-08-16T01:41:29.261Z,58
2022-08-16T01:42:35.544Z,58
2022-08-16T01:43:41.807Z,58
2022-08-16T01:44:48.077Z,58
2022-08-16T01:45:54.352Z,58
2022-08-16T01:47:00.637Z,58
2022-08-16T01:48:06.894Z,58
2022-08-16T01:49:13.185Z,58
2022-08-16T01:50:19.439Z,58
2022-08-16T01:51:25.712Z,58
2022-08-16T01:52:31.989Z,58
2022-08-16T01:53:38.262Z,58
2022-08-16T01:54:44.533Z,59
2022-08-16T01:55:49.816Z,58
2022-08-16T01:56:56.100Z,58
2022-08-16T01:58:02.363Z,58
2022-08-16T01:59:07.658Z,58
2022-08-16T02:00:13.933Z,58
2022-08-16T02:01:20.208Z,58
2022-08-16T02:02:26.475Z,58
2022-08-16T02:03:32.749Z,58
2022-08-16T02:04:39.019Z,58
2022-08-16T02:05:45.296Z,58
2022-08-16T02:06:51.563Z,58
2022-08-16T02:07:57.833Z,58
2022-08-16T02:09:04.113Z,58
2022-08-16T02:10:10.377Z,58
2022-08-16T02:11:16.648Z,58
2022-08-16T02:12:22.921Z,58
2022-08-16T02:13:28.209Z,58
2022-08-16T02:14:34.484Z,58
2022-08-16T02:15:40.752Z,58
2022-08-16T02:16:47.033Z,58
2022-08-16T02:17:53.302Z,58
2022-08-16T02:18:59.571Z,58
2022-08-16T02:20:05.842Z,58
2022-08-16T02:21:12.111Z,58
2022-08-16T02:22:18.381Z,58
2022-08-16T02:23:24.663Z,58
2022-08-16T02:24:30.929Z,58
2022-08-16T02:25:37.199Z,58
2022-08-16T02:26:43.490Z,58
2022-08-16T02:27:48.763Z,58
2022-08-16T02:28:55.039Z,58
2022-08-16T02:30:01.302Z,58
2022-08-16T02:31:07.600Z,58
2022-08-16T02:32:13.863Z,58
2022-08-16T02:33:20.124Z,58
2022-08-16T02:34:26.402Z,58
2022-08-16T02:35:32.671Z,58
2022-08-16T02:36:38.943Z,58
2022-08-16T02:37:45.217Z,58
2022-08-16T02:38:51.486Z,58
2022-08-16T02:39:57.762Z,58
2022-08-16T02:41:04.033Z,58
2022-08-16T02:42:09.313Z,58
2022-08-16T02:43:15.592Z,58
2022-08-16T02:44:21.870Z,58
2022-08-16T02:45:28.136Z,58
2022-08-16T02:46:34.402Z,58
2022-08-16T02:47:40.676Z,58
2022-08-16T02:48:46.958Z,58
2022-08-16T02:49:53.218Z,58
2022-08-16T02:50:59.496Z,58
2022-08-16T02:52:05.757Z,58
2022-08-16T02:53:12.041Z,58
2022-08-16T02:54:18.303Z,58
2022-08-16T02:55:24.579Z,58
2022-08-16T02:56:29.870Z,58
2022-08-16T02:57:36.135Z,58
2022-08-16T02:58:42.405Z,58
2022-08-16T02:59:48.680Z,58
2022-08-16T03:00:54.956Z,58
2022-08-16T03:02:01.224Z,58
2022-08-16T03:03:07.517Z,58
2022-08-16T03:04:13.767Z,58
2022-08-16T03:05:20.053Z,58
2022-08-16T03:06:26.314Z,58
2022-08-16T03:07:32.590Z,58
2022-08-16T03:08:38.858Z,58
2022-08-16T03:09:45.129Z,58
2022-08-16T03:10:51.407Z,58
2022-08-16T03:11:56.687Z,58
2022-08-16T03:13:02.966Z,58
2022-08-16T03:14:09.232Z,58
2022-08-16T03:15:15.499Z,58
2022-08-16T03:16:21.777Z,58
2022-08-16T03:17:28.045Z,58
2022-08-16T03:18:34.317Z,58
2022-08-16T03:19:40.592Z,58
2022-08-16T03:20:46.866Z,58
2022-08-16T03:21:53.137Z,58
2022-08-16T03:22:59.410Z,58
2022-08-16T03:24:05.686Z,58
2022-08-16T03:25:11.953Z,58
2022-08-16T03:26:18.234Z,58
2022-08-16T03:27:24.503Z,58
2022-08-16T03:28:29.802Z,58
2022-08-16T03:29:36.059Z,58
2022-08-16T03:30:42.339Z,58
2022-08-16T03:31:48.608Z,58
2022-08-16T03:32:54.872Z,58
2022-08-16T03:34:01.148Z,58
2022-08-16T03:35:07.417Z,58
2022-08-16T03:36:13.690Z,58
2022-08-16T03:37:19.962Z,58
2022-08-16T03:38:26.231Z,58
2022-08-16T03:39:32.516Z,58
2022-08-16T03:40:38.781Z,58
2022-08-16T03:41:45.051Z,58
2022-08-16T03:42:50.341Z,58
2022-08-16T03:43:56.613Z,58
2022-08-16T03:45:02.904Z,58
2022-08-16T03:46:09.158Z,58
2022-08-16T03:47:15.436Z,58
2022-08-16T03:48:21.706Z,58
2022-08-16T03:49:27.974Z,58
2022-08-16T03:50:34.247Z,58
2022-08-16T03:51:40.516Z,58
2022-08-16T03:52:46.809Z,58
2022-08-16T03:53:53.059Z,58
2022-08-16T03:54:59.338Z,58
2022-08-16T03:56:05.607Z,58
2022-08-16T03:57:10.902Z,58
2022-08-16T03:58:17.163Z,58
2022-08-16T03:59:23.435Z,58
2022-08-16T04:00:29.707Z,58
2022-08-16T04:01:35.990Z,58
2022-08-16T04:02:42.259Z,58
2022-08-16T04:03:48.530Z,58
2022-08-16T04:04:54.813Z,58
2022-08-16T04:06:01.071Z,58
2022-08-16T04:07:07.354Z,58
2022-08-16T04:08:13.616Z,58
2022-08-16T04:09:19.903Z,58
2022-08-16T04:10:26.167Z,58
2022-08-16T04:11:31.450Z,58
2022-08-16T04:12:37.722Z,58
2022-08-16T04:13:43.999Z,58
2022-08-16T04:14:50.269Z,58
2022-08-16T04:15:56.557Z,58
2022-08-16T04:17:02.822Z,58
2022-08-16T04:18:09.087Z,58
2022-08-16T04:19:15.358Z,58
2022-08-16T04:20:21.628Z,58
2022-08-16T04:21:27.904Z,58
2022-08-16T04:22:34.183Z,58
2022-08-16T04:23:40.464Z,58
2022-08-16T04:24:46.721Z,58
2022-08-16T04:25:52.996Z,58
2022-08-16T04:26:58.282Z,58
2022-08-16T04:28:04.554Z,58
2022-08-16T04:29:10.849Z,58
2022-08-16T04:30:17.101Z,58
2022-08-16T04:31:23.369Z,58
2022-08-16T04:32:29.654Z,58
2022-08-16T04:33:35.916Z,58
2022-08-16T04:34:42.191Z,58
2022-08-16T04:35:48.457Z,58
2022-08-16T04:36:54.744Z,58
2022-08-16T04:38:01.008Z,58
2022-08-16T04:39:07.272Z,58
2022-08-16T04:40:13.556Z,58
2022-08-16T04:41:18.838Z,58
2022-08-16T04:42:25.116Z,58
2022-08-16T04:43:31.386Z,58
2022-08-16T04:44:37.660Z,58
2022-08-16T04:45:43.923Z,58
2022-08-16T04:46:50.192Z,58
2022-08-16T04:47:56.478Z,58
2022-08-16T04:49:02.756Z,58
2022-08-16T04:50:09.018Z,58
2022-08-16T04:51:15.290Z,58
2022-08-16T04:52:21.571Z,58
2022-08-16T04:53:27.826Z,58
2022-08-16T04:54:34.109Z,58
2022-08-16T04:55:40.394Z,58
2022-08-16T04:56:45.688Z,58
2022-08-16T04:57:51.946Z,58
2022-08-16T04:58:58.215Z,58
2022-08-16T05:00:04.481Z,58
2022-08-16T05:01:10.755Z,58
2022-08-16T05:02:17.028Z,58
2022-08-16T05:03:23.302Z,58
2022-08-16T05:04:29.575Z,58
2022-08-16T05:05:35.841Z,58
2022-08-16T05:06:42.113Z,58
2022-08-16T05:07:48.390Z,58
2022-08-16T05:08:54.661Z,58
2022-08-16T05:10:00.927Z,58
2022-08-16T05:11:06.214Z,58
2022-08-16T05:12:12.489Z,58
2022-08-16T05:13:18.763Z,58
2022-08-16T05:14:25.043Z,58
2022-08-16T05:15:31.320Z,58
2022-08-16T05:16:37.579Z,58
2022-08-16T05:17:43.852Z,58
2022-08-16T05:18:50.126Z,58
2022-08-16T05:19:56.393Z,58
2022-08-16T05:21:02.679Z,58
2022-08-16T05:22:08.943Z,58
2022-08-16T05:23:15.234Z,58
2022-08-16T05:24:21.522Z,58
2022-08-16T05:25:27.761Z,58
2022-08-16T05:26:33.070Z,58
2022-08-16T05:27:39.316Z,58
2022-08-16T05:28:45.584Z,58
2022-08-16T05:29:51.866Z,58
2022-08-16T05:30:58.133Z,58
2022-08-16T05:32:04.409Z,58
2022-08-16T05:33:10.675Z,58
2022-08-16T05:34:16.948Z,58
2022-08-16T05:35:23.226Z,58
2022-08-16T05:36:29.488Z,58
2022-08-16T05:37:35.758Z,58
2022-08-16T05:38:42.045Z,58
2022-08-16T05:39:48.310Z,58
2022-08-16T05:40:53.609Z,58
2022-08-16T05:41:59.875Z,58
2022-08-16T05:43:06.150Z,58
2022-08-16T05:44:12.417Z,58
2022-08-16T05:45:18.689Z,58
2022-08-16T05:46:24.967Z,58
2022-08-16T05:47:31.243Z,58
2022-08-16T05:48:37.500Z,58
2022-08-16T05:49:43.772Z,58
2022-08-16T05:50:50.050Z,58
2022-08-16T05:51:55.349Z,58
2022-08-16T05:53:01.610Z,58
2022-08-16T05:54:07.884Z,58
2022-08-16T05:55:13.188Z,58
2022-08-16T05:56:19.475Z,90
2022-08-16T05:57:24.743Z,90
2022-08-16T05:58:31.015Z,90
2022-08-16T05:59:37.294Z,90
2022-08-16T06:00:43.561Z,90
2022-08-16T06:01:49.846Z,90
2022-08-16T06:02:56.105Z,90
2022-08-16T06:04:02.377Z,83
2022-08-16T06:05:08.645Z,81
2022-08-16T06:06:14.922Z,80
2022-08-16T06:07:21.192Z,79
2022-08-16T06:08:27.466Z,79
2022-08-16T06:09:33.737Z,79
2022-08-16T06:10:40.012Z,79
2022-08-16T06:11:45.294Z,78
2022-08-16T06:12:51.574Z,78
2022-08-16T06:13:57.840Z,78
2022-08-16T06:15:04.106Z,78
2022-08-16T06:16:10.386Z,78
2022-08-16T06:17:16.654Z,78
2022-08-16T06:18:21.949Z,78
2022-08-16T06:19:27.249Z,77
2022-08-16T06:20:33.515Z,77
2022-08-16T06:21:39.791Z,77
2022-08-16T06:22:46.055Z,77
2022-08-16T06:23:52.327Z,77
2022-08-16T06:24:58.605Z,77
2022-08-16T06:26:03.899Z,77
2022-08-16T06:27:09.188Z,77
2022-08-16T06:28:15.457Z,77
2022-08-16T06:29:21.730Z,77
2022-08-16T06:30:28.003Z,77
2022-08-16T06:31:34.285Z,77
2022-08-16T06:32:40.551Z,77
2022-08-16T06:33:46.812Z,77
2022-08-16T06:34:53.094Z,77
2022-08-16T06:35:59.360Z,77
2022-08-16T06:37:05.628Z,77
2022-08-16T06:38:11.902Z,76
2022-08-16T06:39:18.183Z,76
2022-08-16T06:40:24.444Z,76
2022-08-16T06:41:29.749Z,76
2022-08-16T06:42:36.006Z,76
2022-08-16T06:43:42.286Z,76
2022-08-16T06:44:48.559Z,76
2022-08-16T06:45:54.833Z,76
2022-08-16T06:47:01.089Z,76
2022-08-16T06:48:07.357Z,76
2022-08-16T06:49:13.631Z,76
2022-08-16T06:50:19.899Z,76
2022-08-16T06:51:26.172Z,76
2022-08-16T06:52:32.442Z,76
2022-08-16T06:53:38.712Z,76
2022-08-16T06:54:44.987Z,76
2022-08-16T06:55:50.275Z,76
2022-08-16T06:56:56.540Z,76
2022-08-16T06:58:02.817Z,76
2022-08-16T06:59:09.090Z,76
2022-08-16T07:00:15.375Z,76
2022-08-16T07:01:21.636Z,76
2022-08-16T07:02:27.910Z,76
2022-08-16T07:03:33.203Z,76
2022-08-16T07:04:38.490Z,76
2022-08-16T07:05:43.785Z,76
2022-08-16T07:06:49.082Z,76
2022-08-16T07:07:55.347Z,76
2022-08-16T07:09:01.625Z,76
2022-08-16T07:10:07.897Z,76
2022-08-16T07:11:14.159Z,76
2022-08-16T07:12:20.433Z,76
2022-08-16T07:13:26.699Z,76
2022-08-16T07:14:32.978Z,76
2022-08-16T07:15:39.247Z,76
2022-08-16T07:16:45.521Z,76
2022-08-16T07:17:51.786Z,76
2022-08-16T07:18:58.070Z,76
2022-08-16T07:20:04.334Z,76
2022-08-16T07:21:09.621Z,76
2022-08-16T07:22:15.901Z,76
2022-08-16T07:23:22.160Z,76
2022-08-16T07:24:28.432Z,76
2022-08-16T07:25:34.718Z,76
2022-08-16T07:26:40.980Z,76
2022-08-16T07:27:47.249Z,76
2022-08-16T07:28:52.558Z,76
2022-08-16T07:29:57.831Z,76
2022-08-16T07:31:03.161Z,76
2022-08-16T07:32:08.419Z,75
2022-08-16T07:33:14.692Z,76
2022-08-16T07:34:20.965Z,76
2022-08-16T07:35:27.237Z,76
2022-08-16T07:36:33.506Z,76
2022-08-16T07:37:39.777Z,76
2022-08-16T07:38:46.050Z,75
2022-08-16T07:39:52.322Z,76
2022-08-16T07:40:58.587Z,75
2022-08-16T07:42:04.869Z,75
2022-08-16T07:43:11.133Z,75
2022-08-16T07:44:17.408Z,75
2022-08-16T07:45:23.679Z,75
2022-08-16T07:46:28.960Z,75
2022-08-16T07:47:35.237Z,75
2022-08-16T07:48:41.512Z,75
2022-08-16T07:49:47.775Z,75
2022-08-16T07:50:54.051Z,75
2022-08-16T07:52:00.324Z,75
2022-08-16T07:53:06.619Z,75
2022-08-16T07:54:12.883Z,75
2022-08-16T07:55:19.137Z,75
2022-08-16T07:56:25.404Z,75
2022-08-16T07:57:31.680Z,75
2022-08-16T07:58:37.951Z,75
2022-08-16T07:59:44.217Z,75
2022-08-16T08:00:50.490Z,75
2022-08-16T08:01:56.760Z,75
2022-08-16T08:03:02.065Z,75
2022-08-16T08:04:08.322Z,75
2022-08-16T08:05:14.616Z,75
2022-08-16T08:06:20.869Z,75
2022-08-16T08:07:27.167Z,75
2022-08-16T08:08:33.411Z,75
2022-08-16T08:09:39.686Z,75
2022-08-16T08:10:45.955Z,75
2022-08-16T08:11:52.221Z,75
2022-08-16T08:12:58.494Z,75
2022-08-16T08:14:04.769Z,75
2022-08-16T08:15:10.069Z,75
2022-08-16T08:16:15.361Z,75
2022-08-16T08:17:20.650Z,75
2022-08-16T08:18:25.938Z,75
2022-08-16T08:19:32.213Z,75
2022-08-16T08:20:38.482Z,75
2022-08-16T08:21:44.761Z,75
2022-08-16T08:22:51.020Z,75
2022-08-16T08:23:57.296Z,75
2022-08-16T08:25:03.581Z,75
2022-08-16T08:26:09.840Z,75
2022-08-16T08:27:16.109Z,75
2022-08-16T08:28:22.383Z,75
2022-08-16T08:29:28.656Z,75
2022-08-16T08:30:34.933Z,75
2022-08-16T08:31:41.213Z,75
2022-08-16T08:32:46.487Z,75
2022-08-16T08:33:52.759Z,75
2022-08-16T08:34:59.053Z,75
2022-08-16T08:36:05.310Z,75
2022-08-16T08:37:11.575Z,75
2022-08-16T08:38:17.842Z,75
2022-08-16T08:39:24.113Z,75
2022-08-16T08:40:29.430Z,75
2022-08-16T08:41:34.709Z,75
2022-08-16T08:42:40.018Z,75
2022-08-16T08:43:45.303Z,75
2022-08-16T08:44:51.583Z,75
2022-08-16T08:45:57.836Z,75
2022-08-16T08:47:04.108Z,75
2022-08-16T08:48:10.389Z,75
2022-08-16T08:49:16.649Z,75
2022-08-16T08:50:22.930Z,75
2022-08-16T08:51:29.193Z,75
2022-08-16T08:52:35.468Z,75
2022-08-16T08:53:41.737Z,75
2022-08-16T08:54:48.005Z,75
2022-08-16T08:55:54.292Z,75
2022-08-16T08:57:00.553Z,75
2022-08-16T08:58:05.835Z,75
2022-08-16T08:59:12.110Z,75
2022-08-16T09:00:18.394Z,75
2022-08-16T09:01:24.652Z,75
2022-08-16T09:02:30.919Z,75
2022-08-16T09:03:37.221Z,75
2022-08-16T09:04:43.490Z,75
2022-08-16T09:05:48.774Z,75
2022-08-16T09:06:54.054Z,75
2022-08-16T09:08:00.335Z,75
2022-08-16T09:09:05.633Z,75
2022-08-16T09:10:10.915Z,75
2022-08-16T09:11:17.192Z,75
2022-08-16T09:12:23.460Z,75
2022-08-16T09:13:29.734Z,75
2022-08-16T09:14:36.028Z,75
2022-08-16T09:15:42.273Z,75
2022-08-16T09:16:48.545Z,75
2022-08-16T09:17:54.819Z,75
2022-08-16T09:19:01.086Z,75
2022-08-16T09:20:07.367Z,75
2022-08-16T09:21:13.647Z,75
2022-08-16T09:22:18.928Z,75
2022-08-16T09:23:25.192Z,75
2022-08-16T09:24:31.472Z,75
2022-08-16T09:25:37.774Z,75
2022-08-16T09:26:44.024Z,74
2022-08-16T09:27:50.286Z,75
2022-08-16T09:28:56.552Z,75
2022-08-16T09:30:02.841Z,75
2022-08-16T09:31:09.097Z,75
2022-08-16T09:32:14.404Z,75
2022-08-16T09:33:19.695Z,75
2022-08-16T09:34:24.981Z,75
2022-08-16T09:35:30.270Z,75
2022-08-16T09:36:36.550Z,74
2022-08-16T09:37:42.821Z,74
2022-08-16T09:38:49.106Z,74
2022-08-16T09:39:55.366Z,74
2022-08-16T09:41:01.636Z,74
2022-08-16T09:42:07.917Z,74
2022-08-16T09:43:14.178Z,74
2022-08-16T09:44:20.451Z,74
2022-08-16T09:45:26.725Z,74
2022-08-16T09:46:32.994Z,75
2022-08-16T09:47:39.265Z,74
2022-08-16T09:48:45.538Z,74
2022-08-16T09:49:50.826Z,74
2022-08-16T09:50:57.098Z,74
2022-08-16T09:52:03.367Z,74
2022-08-16T09:53:09.650Z,74
2022-08-16T09:54:15.913Z,74
2022-08-16T09:55:22.189Z,74
2022-08-16T09:56:28.458Z,74
2022-08-16T09:57:33.760Z,74
2022-08-16T09:58:39.066Z,74
2022-08-16T09:59:44.355Z,74
2022-08-16T10:00:49.632Z,74
2022-08-16T10:01:55.899Z,74
2022-08-16T10:03:02.196Z,74
2022-08-16T10:04:08.446Z,74
2022-08-16T10:05:14.728Z,74
2022-08-16T10:06:20.992Z,74
2022-08-16T10:07:27.264Z,74
2022-08-16T10:08:33.538Z,74
2022-08-16T10:09:39.815Z,74
2022-08-16T10:10:46.097Z,74
2022-08-16T10:11:52.351Z,74
2022-08-16T10:12:58.650Z,74
2022-08-16T10:14:04.926Z,74
2022-08-16T10:15:10.181Z,74
2022-08-16T10:16:16.458Z,74
2022-08-16T10:17:22.759Z,74
2022-08-16T10:18:28.999Z,74
2022-08-16T10:19:35.285Z,74
2022-08-16T10:20:41.553Z,74
2022-08-16T10:21:47.818Z,74
2022-08-16T10:22:53.120Z,74
2022-08-16T10:23:58.410Z,74
2022-08-16T10:25:03.709Z,74
2022-08-16T10:26:08.992Z,74
2022-08-16T10:27:15.270Z,74
2022-08-16T10:28:21.535Z,74
2022-08-16T10:29:27.841Z,74
2022-08-16T10:30:34.079Z,74
2022-08-16T10:31:40.357Z,74
2022-08-16T10:32:46.621Z,74
2022-08-16T10:33:52.905Z,74
2022-08-16T10:34:59.168Z,74
2022-08-16T10:36:05.438Z,74
2022-08-16T10:37:11.709Z,74
2022-08-16T10:38:17.979Z,74
2022-08-16T10:39:24.261Z,74
2022-08-16T10:40:29.541Z,74
2022-08-16T10:41:35.820Z,74
2022-08-16T10:42:42.098Z,74
2022-08-16T10:43:48.361Z,74
2022-08-16T10:44:54.637Z,74
2022-08-16T10:46:00.907Z,74
2022-08-16T10:47:07.182Z,74
2022-08-16T10:48:12.477Z,74
2022-08-16T10:49:17.773Z,74
2022-08-16T10:50:24.036Z,74
2022-08-16T10:51:29.334Z,74
2022-08-16T10:52:34.624Z,74
2022-08-16T10:53:40.903Z,74
2022-08-16T10:54:47.176Z,74
2022-08-16T10:55:53.449Z,74
2022-08-16T10:56:59.712Z,74
2022-08-16T10:58:05.989Z,74
2022-08-16T10:59:12.264Z,74
2022-08-16T11:00:18.526Z,74
2022-08-16T11:01:24.807Z,74
2022-08-16T11:02:31.089Z,74
2022-08-16T11:03:37.348Z,74
2022-08-16T11:04:43.616Z,74
2022-08-16T11:05:49.928Z,74
2022-08-16T11:06:55.178Z,74
2022-08-16T11:08:01.449Z,74
2022-08-16T11:09:07.761Z,74
2022-08-16T11:10:14.004Z,74
2022-08-16T11:11:20.260Z,74
2022-08-16T11:12:26.536Z,74
2022-08-16T11:13:32.810Z,74
2022-08-16T11:14:38.104Z,74
2022-08-16T11:15:43.397Z,74
2022-08-16T11:16:49.674Z,74
2022-08-16T11:17:55.951Z,74
2022-08-16T11:19:02.213Z,74
2022-08-16T11:20:08.487Z,74
2022-08-16T11:21:14.763Z,74
2022-08-16T11:22:21.023Z,74
2022-08-16T11:23:26.325Z,74
2022-08-16T11:24:31.635Z,74
2022-08-16T11:25:37.888Z,74
2022-08-16T11:26:44.169Z,74
2022-08-16T11:27:50.433Z,74
2022-08-16T11:28:56.716Z,74
2022-08-16T11:30:02.992Z,74
2022-08-16T11:31:09.243Z,74
2022-08-16T11:32:15.515Z,74
2022-08-16T11:33:21.811Z,74
2022-08-16T11:34:28.063Z,74
2022-08-16T11:35:34.336Z,74
2022-08-16T11:36:40.615Z,74
2022-08-16T11:37:46.888Z,74
2022-08-16T11:38:52.181Z,74
2022-08-16T11:39:58.440Z,73
2022-08-16T11:41:04.715Z,74
2022-08-16T11:42:10.994Z,74
2022-08-16T11:43:17.257Z,74
2022-08-16T11:44:23.536Z,73
2022-08-16T11:45:29.801Z,74
2022-08-16T11:46:36.069Z,73
2022-08-16T11:47:41.373Z,74
2022-08-16T11:48:46.661Z,73
2022-08-16T11:49:52.929Z,74
2022-08-16T11:50:59.214Z,73
2022-08-16T11:52:05.478Z,74
2022-08-16T11:53:10.781Z,74
2022-08-16T11:54:16.082Z,74
2022-08-16T11:55:22.336Z,74
2022-08-16T11:56:28.608Z,73
2022-08-16T11:57:34.896Z,73
2022-08-16T11:58:41.158Z,73
2022-08-16T11:59:47.421Z,73
2022-08-16T12:00:53.691Z,74
2022-08-16T12:01:59.968Z,74
2022-08-16T12:03:06.243Z,73
2022-08-16T12:04:12.530Z,73
2022-08-16T12:05:18.781Z,74
2022-08-16T12:06:25.058Z,73
2022-08-16T12:07:31.325Z,73
2022-08-16T12:08:36.621Z,73
2022-08-16T12:09:42.897Z,73
2022-08-16T12:10:49.164Z,73
2022-08-16T12:11:55.432Z,73
2022-08-16T12:13:01.705Z,73
2022-08-16T12:14:07.979Z,73
2022-08-16T12:15:14.247Z,73
2022-08-16T12:16:19.546Z,73
2022-08-16T12:17:24.845Z,73
2022-08-16T12:18:31.104Z,73
2022-08-16T12:19:36.405Z,73
2022-08-16T12:20:41.697Z,73
2022-08-16T12:21:47.972Z,73
2022-08-16T12:22:54.248Z,73
2022-08-16T12:24:00.508Z,73
2022-08-16T12:25:06.793Z,73
2022-08-16T12:26:13.057Z,73
2022-08-16T12:27:19.342Z,73
2022-08-16T12:28:25.608Z,73
2022-08-16T12:29:31.872Z,73
2022-08-16T12:30:38.144Z,73
2022-08-16T12:31:44.420Z,73
2022-08-16T12:32:50.688Z,73
2022-08-16T12:33:56.972Z,73
2022-08-16T12:35:02.250Z,73
2022-08-16T12:36:08.525Z,73
2022-08-16T12:37:14.792Z,73
2022-08-16T12:38:21.065Z,73
2022-08-16T12:39:27.337Z,73
2022-08-16T12:40:33.610Z,73
2022-08-16T12:41:39.892Z,73
2022-08-16T12:42:45.177Z,73
2022-08-16T12:43:50.467Z,73
2022-08-16T12:44:56.739Z,73
2022-08-16T12:46:03.018Z,73
2022-08-16T12:47:08.309Z,73
2022-08-16T12:48:13.604Z,73
2022-08-16T12:49:19.879Z,73
2022-08-16T12:50:26.146Z,73
2022-08-16T12:51:32.419Z,73
2022-08-16T12:52:38.688Z,73
2022-08-16T12:53:44.975Z,73
2022-08-16T12:54:51.233Z,73
2022-08-16T12:55:57.511Z,73
2022-08-16T12:57:03.777Z,73
2022-08-16T12:58:10.054Z,73
2022-08-16T12:59:16.319Z,73
2022-08-16T13:00:22.597Z,73
2022-08-16T13:01:28.894Z,73
2022-08-16T13:02:34.159Z,73
2022-08-16T13:03:39.461Z,73
2022-08-16T13:04:45.719Z,73
2022-08-16T13:05:51.989Z,73
2022-08-16T13:06:58.264Z,73
2022-08-16T13:08:04.549Z,73
2022-08-16T13:09:10.811Z,73
2022-08-16T13:10:16.113Z,73
2022-08-16T13:11:22.376Z,73
2022-08-16T13:12:27.685Z,73
2022-08-16T13:13:32.966Z,73
2022-08-16T13:14:39.249Z,73
2022-08-16T13:15:45.514Z,73
2022-08-16T13:16:51.785Z,73
2022-08-16T13:17:58.054Z,73
2022-08-16T13:19:04.326Z,73
2022-08-16T13:20:10.598Z,73
2022-08-16T13:21:16.874Z,73
2022-08-16T13:22:23.172Z,73
2022-08-16T13:23:29.430Z,73
2022-08-16T13:24:35.686Z,73
2022-08-16T13:25:41.964Z,73
2022-08-16T13:26:48.233Z,73
2022-08-16T13:27:53.529Z,73
2022-08-16T13:28:59.820Z,73
2022-08-16T13:30:06.066Z,73
2022-08-16T13:31:12.346Z,73
2022-08-16T13:32:18.613Z,73
2022-08-16T13:33:24.913Z,73
2022-08-16T13:34:31.153Z,73
2022-08-16T13:35:36.454Z,73
2022-08-16T13:36:41.743Z,73
2022-08-16T13:37:47.047Z,73
2022-08-16T13:38:52.333Z,73
2022-08-16T13:39:58.594Z,73
2022-08-16T13:41:04.890Z,73
2022-08-16T13:42:11.148Z,73
2022-08-16T13:43:17.421Z,73
2022-08-16T13:44:23.691Z,73
2022-08-16T13:45:30.123Z,73
2022-08-16T13:46:36.238Z,73
2022-08-16T13:47:42.520Z,73
2022-08-16T13:48:48.780Z,73
2022-08-16T13:49:55.049Z,73
2022-08-16T13:51:01.323Z,73
2022-08-16T13:52:07.592Z,73
2022-08-16T13:53:12.883Z,73
2022-08-16T13:54:19.157Z,73
2022-08-16T13:55:25.423Z,73
2022-08-16T13:56:31.694Z,73
2022-08-16T13:57:37.973Z,73
2022-08-16T13:58:44.246Z,73
2022-08-16T13:59:50.529Z,73
2022-08-16T14:00:55.824Z,73
2022-08-16T14:02:01.116Z,73
2022-08-16T14:03:07.371Z,73
2022-08-16T14:04:13.651Z,73
2022-08-16T14:05:19.921Z,73
2022-08-16T14:06:25.214Z,73
2022-08-16T14:07:30.505Z,73
2022-08-16T14:08:36.780Z,73
2022-08-16T14:09:43.056Z,73
2022-08-16T14:10:49.326Z,73
2022-08-16T14:11:55.592Z,73
2022-08-16T14:13:01.877Z,73
2022-08-16T14:14:08.135Z,73
2022-08-16T14:15:14.407Z,73
2022-08-16T14:16:20.702Z,73
2022-08-16T14:17:26.963Z,73
2022-08-16T14:18:33.230Z,73
2022-08-16T14:19:39.504Z,73
2022-08-16T14:20:45.799Z,73
2022-08-16T14:21:51.062Z,73
2022-08-16T14:22:57.334Z,73
2022-08-16T14:24:03.605Z,72
2022-08-16T14:25:09.876Z,72
2022-08-16T14:26:16.156Z,73
2022-08-16T14:27:22.422Z,73
2022-08-16T14:28:28.695Z,72
2022-08-16T14:29:33.997Z,73
2022-08-16T14:30:39.281Z,73
2022-08-16T14:31:44.587Z,73
2022-08-16T14:32:49.884Z,73
2022-08-16T14:33:56.140Z,73
2022-08-16T14:35:02.426Z,73
2022-08-16T14:36:08.685Z,72
2022-08-16T14:37:14.957Z,73
2022-08-16T14:38:21.231Z,73
2022-08-16T14:39:27.502Z,73
2022-08-16T14:40:33.775Z,73
2022-08-16T14:41:40.051Z,73
2022-08-16T14:42:46.313Z,72
2022-08-16T14:43:52.591Z,72
2022-08-16T14:44:58.863Z,73
2022-08-16T14:46:05.134Z,72
2022-08-16T14:47:10.431Z,72
2022-08-16T14:48:16.693Z,72
2022-08-16T14:49:22.972Z,72
2022-08-16T14:50:29.237Z,72
2022-08-16T14:51:35.513Z,72
2022-08-16T14:52:41.779Z,73
2022-08-16T14:53:48.057Z,72
2022-08-16T14:54:53.350Z,73
2022-08-16T14:55:58.641Z,73
2022-08-16T14:57:04.917Z,72
2022-08-16T14:58:11.181Z,72
2022-08-16T14:59:17.453Z,72
2022-08-16T15:00:23.734Z,72
2022-08-16T15:01:29.995Z,72
2022-08-16T15:02:36.269Z,72
2022-08-16T15:03:42.541Z,72
2022-08-16T15:04:48.820Z,72
2022-08-16T15:05:55.089Z,72
2022-08-16T15:07:01.359Z,72
2022-08-16T15:08:07.643Z,72
2022-08-16T15:09:13.904Z,72
2022-08-16T15:10:19.191Z,72
2022-08-16T15:11:25.463Z,72
2022-08-16T15:12:31.751Z,72
2022-08-16T15:13:38.011Z,72
2022-08-16T15:14:44.282Z,72
2022-08-16T15:15:50.557Z,72
2022-08-16T15:16:56.835Z,72
2022-08-16T15:18:02.127Z,72
2022-08-16T15:19:07.414Z,72
2022-08-16T15:20:13.690Z,72
2022-08-16T15:21:18.999Z,72
2022-08-16T15:22:24.283Z,72
2022-08-16T15:23:30.553Z,72
2022-08-16T15:24:36.816Z,72
2022-08-16T15:25:43.090Z,72
2022-08-16T15:26:48.391Z,72
2022-08-16T15:27:53.697Z,72
2022-08-16T15:28:59.949Z,72
2022-08-16T15:30:06.226Z,72
2022-08-16T15:31:12.490Z,72
2022-08-16T15:32:18.763Z,72
2022-08-16T15:33:25.048Z,72
2022-08-16T15:34:31.318Z,72
2022-08-16T15:35:37.590Z,72
2022-08-16T15:36:43.859Z,72
2022-08-16T15:37:50.122Z,72
2022-08-16T15:38:56.398Z,72
2022-08-16T15:40:02.666Z,72
2022-08-16T15:41:08.965Z,72
2022-08-16T15:42:14.235Z,72
2022-08-16T15:43:20.502Z,72